sensor_id;sensor_type;location;lat;lon;timestamp;pressure;altitude;pressure_sealevel;temperature;humidity
12879;BME280;20617;49.476;10.986;2023-01-19T00:01:37;97141.22;;;0.48;100.00
12879;BME280;20617;49.476;10.986;2023-01-19T00:03:42;97142.06;;;0.50;100.00
12879;BME280;20617;49.476;10.986;2023-01-19T00:05:46;97139.50;;;0.50;100.00
12879;BME280;20617;49.476;10.986;2023-01-19T00:07:51;97147.19;;;0.50;100.00
12879;BME280;20617;49.476;10.986;2023-01-19T00:09:55;97137.78;;;0.49;100.00
12879;BME280;20617;49.476;10.986;2023-01-19T00:12:00;97142.06;;;0.50;100.00
12879;BME280;20617;49.476;10.986;2023-01-19T00:14:05;97141.25;;;0.47;100.00
12879;BME280;20617;49.476;10.986;2023-01-19T00:16:12;97142.13;;;0.45;100.00
12879;BME280;20617;49.476;10.986;2023-01-19T00:18:18;97147.31;;;0.44;100.00
12879;BME280;20617;49.476;10.986;2023-01-19T00:20:22;97147.31;;;0.44;100.00
12879;BME280;20617;49.476;10.986;2023-01-19T00:22:27;97144.75;;;0.42;100.00
12879;BME280;20617;49.476;10.986;2023-01-19T00:24:32;97148.16;;;0.43;100.00
12879;BME280;20617;49.476;10.986;2023-01-19T00:26:36;97146.50;;;0.40;100.00
12879;BME280;20617;49.476;10.986;2023-01-19T00:28:43;97145.81;;;0.32;100.00
12879;BME280;20617;49.476;10.986;2023-01-19T00:30:50;97139.88;;;0.30;100.00
12879;BME280;20617;49.476;10.986;2023-01-19T00:32:57;97142.47;;;0.29;100.00
12879;BME280;20617;49.476;10.986;2023-01-19T00:35:03;97151.91;;;0.25;100.00
12879;BME280;20617;49.476;10.986;2023-01-19T00:37:07;97145.19;;;0.19;100.00
12879;BME280;20617;49.476;10.986;2023-01-19T00:39:12;97156.44;;;0.11;100.00
12879;BME280;20617;49.476;10.986;2023-01-19T00:41:17;97152.28;;;0.05;100.00
12879;BME280;20617;49.476;10.986;2023-01-19T00:43:41;97146.56;;;-0.09;100.00
12879;BME280;20617;49.476;10.986;2023-01-19T00:45:43;97155.28;;;-0.19;100.00
12879;BME280;20617;49.476;10.986;2023-01-19T00:47:48;97154.66;;;-0.34;100.00
12879;BME280;20617;49.476;10.986;2023-01-19T00:49:57;97157.13;;;-0.28;100.00
12879;BME280;20617;49.476;10.986;2023-01-19T00:52:02;97157.06;;;-0.25;100.00
12879;BME280;20617;49.476;10.986;2023-01-19T00:54:07;97166.34;;;-0.19;100.00
12879;BME280;20617;49.476;10.986;2023-01-19T00:56:11;97166.47;;;-0.27;100.00
12879;BME280;20617;49.476;10.986;2023-01-19T00:58:16;97170.84;;;-0.32;100.00
12879;BME280;20617;49.476;10.986;2023-01-19T01:00:21;97176.00;;;-0.35;100.00
12879;BME280;20617;49.476;10.986;2023-01-19T01:02:26;97176.06;;;-0.39;100.00
12879;BME280;20617;49.476;10.986;2023-01-19T01:04:31;97174.44;;;-0.45;100.00
12879;BME280;20617;49.476;10.986;2023-01-19T01:06:38;97178.81;;;-0.52;100.00
12879;BME280;20617;49.476;10.986;2023-01-19T01:08:42;97181.34;;;-0.49;100.00
12879;BME280;20617;49.476;10.986;2023-01-19T01:10:47;97185.66;;;-0.54;100.00
12879;BME280;20617;49.476;10.986;2023-01-19T01:12:52;97191.56;;;-0.50;100.00
12879;BME280;20617;49.476;10.986;2023-01-19T01:14:59;97192.50;;;-0.54;100.00
12879;BME280;20617;49.476;10.986;2023-01-19T01:17:04;97198.47;;;-0.55;100.00
12879;BME280;20617;49.476;10.986;2023-01-19T01:19:11;97201.00;;;-0.54;100.00
12879;BME280;20617;49.476;10.986;2023-01-19T01:21:16;97192.44;;;-0.53;100.00
12879;BME280;20617;49.476;10.986;2023-01-19T01:23:23;97199.28;;;-0.53;100.00
12879;BME280;20617;49.476;10.986;2023-01-19T01:25:30;97200.13;;;-0.51;100.00
12879;BME280;20617;49.476;10.986;2023-01-19T01:27:38;97206.91;;;-0.50;100.00
12879;BME280;20617;49.476;10.986;2023-01-19T01:29:43;97211.16;;;-0.49;100.00
12879;BME280;20617;49.476;10.986;2023-01-19T01:31:51;97207.75;;;-0.50;100.00
12879;BME280;20617;49.476;10.986;2023-01-19T01:33:56;97216.16;;;-0.41;100.00
12879;BME280;20617;49.476;10.986;2023-01-19T01:36:00;97225.44;;;-0.34;100.00
12879;BME280;20617;49.476;10.986;2023-01-19T01:38:05;97218.56;;;-0.32;100.00
12879;BME280;20617;49.476;10.986;2023-01-19T01:40:13;97221.13;;;-0.32;100.00
12879;BME280;20617;49.476;10.986;2023-01-19T01:42:19;97218.50;;;-0.28;100.00
12879;BME280;20617;49.476;10.986;2023-01-19T01:46:50;97219.38;;;-0.29;100.00
12879;BME280;20617;49.476;10.986;2023-01-19T01:48:55;97221.94;;;-0.30;100.00
12879;BME280;20617;49.476;10.986;2023-01-19T01:51:06;97222.03;;;-0.35;100.00
12879;BME280;20617;49.476;10.986;2023-01-19T01:53:27;97213.44;;;-0.31;100.00
12879;BME280;20617;49.476;10.986;2023-01-19T01:55:37;97227.09;;;-0.33;100.00
12879;BME280;20617;49.476;10.986;2023-01-19T01:57:44;97217.75;;;-0.34;100.00
12879;BME280;20617;49.476;10.986;2023-01-19T01:59:50;97218.59;;;-0.34;100.00
12879;BME280;20617;49.476;10.986;2023-01-19T02:01:56;97217.81;;;-0.37;100.00
12879;BME280;20617;49.476;10.986;2023-01-19T02:04:14;97221.22;;;-0.38;100.00
12879;BME280;20617;49.476;10.986;2023-01-19T02:06:16;97222.94;;;-0.39;100.00
12879;BME280;20617;49.476;10.986;2023-01-19T02:08:24;97221.25;;;-0.41;100.00
12879;BME280;20617;49.476;10.986;2023-01-19T02:10:46;97220.47;;;-0.43;100.00
12879;BME280;20617;49.476;10.986;2023-01-19T02:13:03;97210.19;;;-0.40;100.00
12879;BME280;20617;49.476;10.986;2023-01-19T02:15:23;97206.75;;;-0.41;100.00
12879;BME280;20617;49.476;10.986;2023-01-19T02:17:28;97200.78;;;-0.40;100.00
12879;BME280;20617;49.476;10.986;2023-01-19T02:19:33;97208.47;;;-0.41;100.00
12879;BME280;20617;49.476;10.986;2023-01-19T02:21:40;97206.75;;;-0.39;100.00
12879;BME280;20617;49.476;10.986;2023-01-19T02:23:50;97212.69;;;-0.39;100.00
12879;BME280;20617;49.476;10.986;2023-01-19T02:25:56;97217.03;;;-0.42;100.00
12879;BME280;20617;49.476;10.986;2023-01-19T02:28:01;97221.25;;;-0.41;100.00
12879;BME280;20617;49.476;10.986;2023-01-19T02:30:06;97222.09;;;-0.41;100.00
12879;BME280;20617;49.476;10.986;2023-01-19T02:32:11;97218.75;;;-0.43;100.00
12879;BME280;20617;49.476;10.986;2023-01-19T02:34:17;97221.34;;;-0.46;100.00
12879;BME280;20617;49.476;10.986;2023-01-19T02:36:22;97213.72;;;-0.51;100.00
12879;BME280;20617;49.476;10.986;2023-01-19T02:38:29;97211.16;;;-0.49;100.00
12879;BME280;20617;49.476;10.986;2023-01-19T02:40:36;97211.16;;;-0.49;100.00
12879;BME280;20617;49.476;10.986;2023-01-19T02:42:42;97220.56;;;-0.51;100.00
12879;BME280;20617;49.476;10.986;2023-01-19T02:44:48;97217.16;;;-0.52;100.00
12879;BME280;20617;49.476;10.986;2023-01-19T02:46:53;97212.06;;;-0.53;100.00
12879;BME280;20617;49.476;10.986;2023-01-19T02:48:58;97217.19;;;-0.53;100.00
12879;BME280;20617;49.476;10.986;2023-01-19T02:51:07;97218.06;;;-0.54;100.00
12879;BME280;20617;49.476;10.986;2023-01-19T02:53:23;97218.06;;;-0.56;100.00
12879;BME280;20617;49.476;10.986;2023-01-19T02:55:30;97222.28;;;-0.53;100.00
12879;BME280;20617;49.476;10.986;2023-01-19T02:57:44;97220.63;;;-0.56;100.00
12879;BME280;20617;49.476;10.986;2023-01-19T02:59:57;97219.81;;;-0.58;100.00
12879;BME280;20617;49.476;10.986;2023-01-19T03:02:12;97219.88;;;-0.61;100.00
12879;BME280;20617;49.476;10.986;2023-01-19T03:04:22;97216.47;;;-0.64;100.00
12879;BME280;20617;49.476;10.986;2023-01-19T03:06:32;97228.50;;;-0.71;100.00
12879;BME280;20617;49.476;10.986;2023-01-19T03:08:41;97233.69;;;-0.76;100.00
12879;BME280;20617;49.476;10.986;2023-01-19T03:10:52;97239.66;;;-0.77;100.00
12879;BME280;20617;49.476;10.986;2023-01-19T03:13:04;97240.50;;;-0.76;100.00
12879;BME280;20617;49.476;10.986;2023-01-19T03:15:16;97247.38;;;-0.78;100.00
12879;BME280;20617;49.476;10.986;2023-01-19T03:17:22;97243.94;;;-0.77;100.00
12879;BME280;20617;49.476;10.986;2023-01-19T03:19:30;97237.97;;;-0.78;100.00
12879;BME280;20617;49.476;10.986;2023-01-19T03:21:36;97239.69;;;-0.80;100.00
12879;BME280;20617;49.476;10.986;2023-01-19T03:23:43;97249.91;;;-0.80;100.00
12879;BME280;20617;49.476;10.986;2023-01-19T03:25:48;97249.13;;;-0.83;100.00
12879;BME280;20617;49.476;10.986;2023-01-19T03:27:54;97245.78;;;-0.88;100.00
12879;BME280;20617;49.476;10.986;2023-01-19T03:30:04;97247.47;;;-0.87;100.00
12879;BME280;20617;49.476;10.986;2023-01-19T03:32:11;97242.38;;;-0.89;100.00
12879;BME280;20617;49.476;10.986;2023-01-19T03:34:17;97249.22;;;-0.89;100.00
12879;BME280;20617;49.476;10.986;2023-01-19T03:36:25;97251.81;;;-0.93;100.00
12879;BME280;20617;49.476;10.986;2023-01-19T03:38:37;97257.75;;;-0.92;100.00
12879;BME280;20617;49.476;10.986;2023-01-19T03:40:43;97263.69;;;-0.92;100.00
12879;BME280;20617;49.476;10.986;2023-01-19T03:42:48;97262.81;;;-0.89;100.00
12879;BME280;20617;49.476;10.986;2023-01-19T03:44:53;97264.53;;;-0.89;100.00
12879;BME280;20617;49.476;10.986;2023-01-19T03:47:03;97267.94;;;-0.91;100.00
12879;BME280;20617;49.476;10.986;2023-01-19T03:49:09;97265.38;;;-0.89;100.00
12879;BME280;20617;49.476;10.986;2023-01-19T03:51:14;97268.81;;;-0.90;100.00
12879;BME280;20617;49.476;10.986;2023-01-19T03:53:20;97272.19;;;-0.89;100.00
12879;BME280;20617;49.476;10.986;2023-01-19T03:55:24;97267.97;;;-0.92;100.00
12879;BME280;20617;49.476;10.986;2023-01-19T03:57:29;97270.50;;;-0.91;100.00
12879;BME280;20617;49.476;10.986;2023-01-19T03:59:34;97274.75;;;-0.91;100.00
12879;BME280;20617;49.476;10.986;2023-01-19T04:01:38;97274.78;;;-0.93;100.00
12879;BME280;20617;49.476;10.986;2023-01-19T04:03:46;97271.38;;;-0.92;100.00
12879;BME280;20617;49.476;10.986;2023-01-19T04:05:51;97270.56;;;-0.95;100.00
12879;BME280;20617;49.476;10.986;2023-01-19T04:07:55;97275.69;;;-0.95;100.00
12879;BME280;20617;49.476;10.986;2023-01-19T04:10:00;97277.41;;;-0.97;100.00
12879;BME280;20617;49.476;10.986;2023-01-19T04:12:05;97276.53;;;-0.96;100.00
12879;BME280;20617;49.476;10.986;2023-01-19T04:14:09;97279.94;;;-0.97;100.00
12879;BME280;20617;49.476;10.986;2023-01-19T04:16:14;97279.13;;;-0.99;100.00
12879;BME280;20617;49.476;10.986;2023-01-19T04:18:22;97277.44;;;-0.99;100.00
12879;BME280;20617;49.476;10.986;2023-01-19T04:20:29;97277.41;;;-0.97;100.00
12879;BME280;20617;49.476;10.986;2023-01-19T04:22:34;97280.81;;;-0.98;100.00
12879;BME280;20617;49.476;10.986;2023-01-19T04:24:39;97284.22;;;-0.98;100.00
12879;BME280;20617;49.476;10.986;2023-01-19T04:26:44;97275.72;;;-0.98;100.00
12879;BME280;20617;49.476;10.986;2023-01-19T04:28:48;97274.03;;;-1.01;100.00
12879;BME280;20617;49.476;10.986;2023-01-19T04:30:53;97270.66;;;-1.01;100.00
12879;BME280;20617;49.476;10.986;2023-01-19T04:33:00;97267.25;;;-1.02;100.00
12879;BME280;20617;49.476;10.986;2023-01-19T04:35:05;97272.34;;;-1.02;100.00
12879;BME280;20617;49.476;10.986;2023-01-19T04:37:12;97270.66;;;-1.01;100.00
12879;BME280;20617;49.476;10.986;2023-01-19T04:39:17;97271.53;;;-1.04;100.00
12879;BME280;20617;49.476;10.986;2023-01-19T04:41:22;97260.50;;;-1.07;100.00
12879;BME280;20617;49.476;10.986;2023-01-19T04:43:26;97267.28;;;-1.08;100.00
12879;BME280;20617;49.476;10.986;2023-01-19T04:45:31;97270.69;;;-1.06;100.00
12879;BME280;20617;49.476;10.986;2023-01-19T04:47:37;97267.34;;;-1.09;100.00
12879;BME280;20617;49.476;10.986;2023-01-19T04:49:43;97269.84;;;-1.08;100.00
12879;BME280;20617;49.476;10.986;2023-01-19T04:51:47;97267.28;;;-1.06;100.00
12879;BME280;20617;49.476;10.986;2023-01-19T04:53:55;97272.41;;;-1.06;100.00
12879;BME280;20617;49.476;10.986;2023-01-19T04:56:00;97269.88;;;-1.09;100.00
12879;BME280;20617;49.476;10.986;2023-01-19T04:58:05;97277.53;;;-1.09;100.00
12879;BME280;20617;49.476;10.986;2023-01-19T05:00:10;97282.66;;;-1.09;100.00
12879;BME280;20617;49.476;10.986;2023-01-19T05:02:15;97286.09;;;-1.10;100.00
12879;BME280;20617;49.476;10.986;2023-01-19T05:04:19;97280.97;;;-1.10;100.00
12879;BME280;20617;49.476;10.986;2023-01-19T05:06:27;97274.16;;;-1.10;100.00
12879;BME280;20617;49.476;10.986;2023-01-19T05:08:31;97281.78;;;-1.08;100.00
12879;BME280;20617;49.476;10.986;2023-01-19T05:10:38;97278.41;;;-1.12;100.00
12879;BME280;20617;49.476;10.986;2023-01-19T05:12:43;97280.97;;;-1.10;100.00
12879;BME280;20617;49.476;10.986;2023-01-19T05:14:47;97278.44;;;-1.14;100.00
12879;BME280;20617;49.476;10.986;2023-01-19T05:16:52;97278.47;;;-1.17;100.00
12879;BME280;20617;49.476;10.986;2023-01-19T05:18:56;97281.84;;;-1.15;100.00
12879;BME280;20617;49.476;10.986;2023-01-19T05:21:01;97281.88;;;-1.16;100.00
12879;BME280;20617;49.476;10.986;2023-01-19T05:23:06;97286.09;;;-1.14;100.00
12879;BME280;20617;49.476;10.986;2023-01-19T05:25:10;97287.84;;;-1.16;100.00
12879;BME280;20617;49.476;10.986;2023-01-19T05:27:17;97287.81;;;-1.12;100.00
12879;BME280;20617;49.476;10.986;2023-01-19T05:29:22;97285.28;;;-1.16;100.00
12879;BME280;20617;49.476;10.986;2023-01-19T05:31:27;97288.72;;;-1.18;100.00
12879;BME280;20617;49.476;10.986;2023-01-19T05:33:31;97289.56;;;-1.18;100.00
12879;BME280;20617;49.476;10.986;2023-01-19T05:35:36;97296.38;;;-1.18;100.00
12879;BME280;20617;49.476;10.986;2023-01-19T05:37:40;97292.09;;;-1.18;100.00
12879;BME280;20617;49.476;10.986;2023-01-19T05:39:45;97296.34;;;-1.17;100.00
12879;BME280;20617;49.476;10.986;2023-01-19T05:41:50;97298.94;;;-1.20;100.00
12879;BME280;20617;49.476;10.986;2023-01-19T05:43:57;97289.59;;;-1.19;100.00
12879;BME280;20617;49.476;10.986;2023-01-19T05:46:02;97298.94;;;-1.18;100.00
12879;BME280;20617;49.476;10.986;2023-01-19T05:48:07;97304.00;;;-1.17;100.00
12879;BME280;20617;49.476;10.986;2023-01-19T05:50:11;97297.22;;;-1.16;100.00
12879;BME280;20617;49.476;10.986;2023-01-19T05:52:16;97314.22;;;-1.17;100.00
12879;BME280;20617;49.476;10.986;2023-01-19T05:54:20;97306.56;;;-1.15;100.00
12879;BME280;20617;49.476;10.986;2023-01-19T05:56:25;97306.56;;;-1.15;100.00
12879;BME280;20617;49.476;10.986;2023-01-19T05:58:30;97315.06;;;-1.13;100.00
12879;BME280;20617;49.476;10.986;2023-01-19T06:00:38;97302.28;;;-1.13;100.00
12879;BME280;20617;49.476;10.986;2023-01-19T06:02:43;97308.25;;;-1.17;100.00
12879;BME280;20617;49.476;10.986;2023-01-19T06:04:50;97309.97;;;-1.18;100.00
12879;BME280;20617;49.476;10.986;2023-01-19T06:06:54;97302.31;;;-1.18;100.00
12879;BME280;20617;49.476;10.986;2023-01-19T06:08:59;97315.09;;;-1.18;100.00
12879;BME280;20617;49.476;10.986;2023-01-19T06:11:04;97315.19;;;-1.28;100.00
12879;BME280;20617;49.476;10.986;2023-01-19T06:13:09;97323.00;;;-1.42;100.00
12879;BME280;20617;49.476;10.986;2023-01-19T06:15:13;97311.06;;;-1.40;100.00
12879;BME280;20617;49.476;10.986;2023-01-19T06:17:21;97318.72;;;-1.40;100.00
12879;BME280;20617;49.476;10.986;2023-01-19T06:19:25;97317.88;;;-1.41;100.00
12879;BME280;20617;49.476;10.986;2023-01-19T06:21:30;97315.28;;;-1.36;100.00
12879;BME280;20617;49.476;10.986;2023-01-19T06:23:35;97306.78;;;-1.37;100.00
12879;BME280;20617;49.476;10.986;2023-01-19T06:25:39;97307.59;;;-1.33;100.00
12879;BME280;20617;49.476;10.986;2023-01-19T06:27:44;97311.00;;;-1.32;100.00
12879;BME280;20617;49.476;10.986;2023-01-19T06:29:49;97318.63;;;-1.28;100.00
12879;BME280;20617;49.476;10.986;2023-01-19T06:31:53;97311.75;;;-1.26;100.00
12879;BME280;20617;49.476;10.986;2023-01-19T06:34:03;97319.53;;;-1.33;100.00
12879;BME280;20617;49.476;10.986;2023-01-19T06:36:08;97323.00;;;-1.42;100.00
12879;BME280;20617;49.476;10.986;2023-01-19T06:38:12;97322.94;;;-1.38;100.00
12879;BME280;20617;49.476;10.986;2023-01-19T06:40:19;97328.84;;;-1.32;100.00
12879;BME280;20617;49.476;10.986;2023-01-19T06:42:24;97322.03;;;-1.32;100.00
12879;BME280;20617;49.476;10.986;2023-01-19T06:44:28;97323.72;;;-1.28;100.00
12879;BME280;20617;49.476;10.986;2023-01-19T06:46:36;97331.34;;;-1.25;100.00
12879;BME280;20617;49.476;10.986;2023-01-19T06:48:41;97335.63;;;-1.27;100.00
12879;BME280;20617;49.476;10.986;2023-01-19T06:50:48;97327.91;;;-1.24;100.00
12879;BME280;20617;49.476;10.986;2023-01-19T06:52:53;97333.00;;;-1.21;100.00
12879;BME280;20617;49.476;10.986;2023-01-19T06:54:57;97325.34;;;-1.19;100.00
12879;BME280;20617;49.476;10.986;2023-01-19T06:57:03;97336.38;;;-1.19;100.00
12879;BME280;20617;49.476;10.986;2023-01-19T06:59:07;97336.38;;;-1.20;100.00
12879;BME280;20617;49.476;10.986;2023-01-19T07:01:13;97338.94;;;-1.19;100.00
12879;BME280;20617;49.476;10.986;2023-01-19T07:03:18;97334.69;;;-1.20;100.00
12879;BME280;20617;49.476;10.986;2023-01-19T07:05:23;97340.66;;;-1.21;100.00
12879;BME280;20617;49.476;10.986;2023-01-19T07:07:30;97341.50;;;-1.20;100.00
12879;BME280;20617;49.476;10.986;2023-01-19T07:09:35;97343.19;;;-1.18;100.00
12879;BME280;20617;49.476;10.986;2023-01-19T07:11:39;97340.66;;;-1.21;100.00
12879;BME280;20617;49.476;10.986;2023-01-19T07:13:44;97338.94;;;-1.19;100.00
12879;BME280;20617;49.476;10.986;2023-01-19T07:15:52;97342.34;;;-1.18;100.00
12879;BME280;20617;49.476;10.986;2023-01-19T07:17:56;97344.00;;;-1.16;100.00
12879;BME280;20617;49.476;10.986;2023-01-19T07:20:04;97346.63;;;-1.23;100.00
12879;BME280;20617;49.476;10.986;2023-01-19T07:22:09;97352.56;;;-1.23;100.00
12879;BME280;20617;49.476;10.986;2023-01-19T07:24:16;97350.00;;;-1.20;100.00
12879;BME280;20617;49.476;10.986;2023-01-19T07:26:21;97345.75;;;-1.21;100.00
12879;BME280;20617;49.476;10.986;2023-01-19T07:28:26;97355.91;;;-1.15;100.00
12879;BME280;20617;49.476;10.986;2023-01-19T07:30:32;97352.44;;;-1.09;100.00
12879;BME280;20617;49.476;10.986;2023-01-19T07:32:36;97346.44;;;-1.05;100.00
12879;BME280;20617;49.476;10.986;2023-01-19T07:34:43;97349.78;;;-0.98;100.00
12879;BME280;20617;49.476;10.986;2023-01-19T07:36:47;97354.00;;;-0.93;100.00
12879;BME280;20617;49.476;10.986;2023-01-19T07:38:52;97353.06;;;-0.88;100.00
12879;BME280;20617;49.476;10.986;2023-01-19T07:41:02;97353.03;;;-0.85;100.00
12879;BME280;20617;49.476;10.986;2023-01-19T07:43:07;97350.47;;;-0.84;100.00
12879;BME280;20617;49.476;10.986;2023-01-19T07:45:12;97354.72;;;-0.84;100.00
12879;BME280;20617;49.476;10.986;2023-01-19T07:47:17;97345.44;;;-0.90;100.00
12879;BME280;20617;49.476;10.986;2023-01-19T07:49:22;97351.41;;;-0.89;100.00
12879;BME280;20617;49.476;10.986;2023-01-19T07:51:26;97364.22;;;-0.94;100.00
12879;BME280;20617;49.476;10.986;2023-01-19T07:53:31;97360.03;;;-1.01;100.00
12879;BME280;20617;49.476;10.986;2023-01-19T07:55:35;97367.75;;;-1.04;100.00
12879;BME280;20617;49.476;10.986;2023-01-19T07:57:43;97376.31;;;-1.10;100.00
12879;BME280;20617;49.476;10.986;2023-01-19T07:59:47;97376.34;;;-1.13;100.00
12879;BME280;20617;49.476;10.986;2023-01-19T08:01:52;97379.69;;;-1.09;100.00
12879;BME280;20617;49.476;10.986;2023-01-19T08:03:58;97380.44;;;-1.00;100.00
12879;BME280;20617;49.476;10.986;2023-01-19T08:06:03;97377.81;;;-0.94;100.00
12879;BME280;20617;49.476;10.986;2023-01-19T08:08:08;97379.50;;;-0.89;100.00
12879;BME280;20617;49.476;10.986;2023-01-19T08:10:14;97376.94;;;-0.89;100.00
12879;BME280;20617;49.476;10.986;2023-01-19T08:12:19;97382.03;;;-0.86;100.00
12879;BME280;20617;49.476;10.986;2023-01-19T08:14:26;97385.53;;;-0.97;100.00
12879;BME280;20617;49.476;10.986;2023-01-19T08:18:35;97387.25;;;-0.99;100.00
12879;BME280;20617;49.476;10.986;2023-01-19T08:20:40;97393.28;;;-1.06;100.00
12879;BME280;20617;49.476;10.986;2023-01-19T08:22:46;97394.06;;;-0.98;100.00
12879;BME280;20617;49.476;10.986;2023-01-19T08:24:50;97396.53;;;-0.92;100.00
12879;BME280;20617;49.476;10.986;2023-01-19T08:26:58;97399.06;;;-0.88;100.00
12879;BME280;20617;49.476;10.986;2023-01-19T08:29:04;97398.16;;;-0.81;100.00
12879;BME280;20617;49.476;10.986;2023-01-19T08:31:12;97394.66;;;-0.76;100.00
12879;BME280;20617;49.476;10.986;2023-01-19T08:33:23;97390.38;;;-0.72;100.00
12879;BME280;20617;49.476;10.986;2023-01-19T08:35:27;97398.81;;;-0.67;100.00
12879;BME280;20617;49.476;10.986;2023-01-19T08:37:32;97403.06;;;-0.63;100.00
12879;BME280;20617;49.476;10.986;2023-01-19T08:39:36;97403.84;;;-0.59;100.00
12879;BME280;20617;49.476;10.986;2023-01-19T08:41:41;97406.41;;;-0.59;100.00
12879;BME280;20617;49.476;10.986;2023-01-19T08:43:46;97408.09;;;-0.55;100.00
12879;BME280;20617;49.476;10.986;2023-01-19T08:45:51;97404.56;;;-0.50;100.00
12879;BME280;20617;49.476;10.986;2023-01-19T08:47:59;97411.34;;;-0.44;100.00
12879;BME280;20617;49.476;10.986;2023-01-19T08:50:05;97414.66;;;-0.34;100.00
12879;BME280;20617;49.476;10.986;2023-01-19T08:52:11;97409.44;;;-0.30;100.00
12879;BME280;20617;49.476;10.986;2023-01-19T08:54:15;97405.16;;;-0.26;100.00
12879;BME280;20617;49.476;10.986;2023-01-19T08:56:22;97417.09;;;-0.25;100.00
12879;BME280;20617;49.476;10.986;2023-01-19T08:58:26;97409.44;;;-0.28;100.00
12879;BME280;20617;49.476;10.986;2023-01-19T09:00:31;97407.91;;;-0.40;100.00
12879;BME280;20617;49.476;10.986;2023-01-19T09:02:38;97418.09;;;-0.38;100.00
12879;BME280;20617;49.476;10.986;2023-01-19T09:04:45;97418.13;;;-0.40;100.00
12879;BME280;20617;49.476;10.986;2023-01-19T09:06:50;97420.78;;;-0.49;100.00
12879;BME280;20617;49.476;10.986;2023-01-19T09:08:55;97430.19;;;-0.51;100.00
12879;BME280;20617;49.476;10.986;2023-01-19T09:11:00;97431.84;;;-0.49;100.00
12879;BME280;20617;49.476;10.986;2023-01-19T09:13:06;97435.09;;;-0.36;100.00
12879;BME280;20617;49.476;10.986;2023-01-19T09:15:11;97432.44;;;-0.25;100.00
12879;BME280;20617;49.476;10.986;2023-01-19T09:17:17;97444.34;;;-0.22;100.00
12879;BME280;20617;49.476;10.986;2023-01-19T09:19:21;97434.88;;;-0.14;100.00
12879;BME280;20617;49.476;10.986;2023-01-19T09:21:28;97431.44;;;-0.13;100.00
12879;BME280;20617;49.476;10.986;2023-01-19T09:23:33;97437.28;;;-0.05;100.00
12879;BME280;20617;49.476;10.986;2023-01-19T09:25:38;97434.66;;;-0.01;100.00
12879;BME280;20617;49.476;10.986;2023-01-19T09:27:42;97436.41;;;-0.03;100.00
12879;BME280;20617;49.476;10.986;2023-01-19T09:29:47;97432.06;;;0.04;100.00
12879;BME280;20617;49.476;10.986;2023-01-19T09:31:54;97426.94;;;0.04;100.00
12879;BME280;20617;49.476;10.986;2023-01-19T09:33:59;97432.00;;;0.07;100.00
12879;BME280;20617;49.476;10.986;2023-01-19T09:36:04;97435.31;;;0.15;100.00
12879;BME280;20617;49.476;10.986;2023-01-19T09:38:11;97439.50;;;0.21;100.00
12879;BME280;20617;49.476;10.986;2023-01-19T09:40:17;97438.63;;;0.24;100.00
12879;BME280;20617;49.476;10.986;2023-01-19T09:42:25;97439.47;;;0.22;100.00
12879;BME280;20617;49.476;10.986;2023-01-19T09:44:32;97437.72;;;0.25;100.00
12879;BME280;20617;49.476;10.986;2023-01-19T09:46:39;97438.53;;;0.30;100.00
12879;BME280;20617;49.476;10.986;2023-01-19T09:48:44;97446.09;;;0.36;100.00
12879;BME280;20617;49.476;10.986;2023-01-19T09:50:49;97437.47;;;0.43;100.00
12879;BME280;20617;49.476;10.986;2023-01-19T09:52:55;97440.75;;;0.51;100.00
12879;BME280;20617;49.476;10.986;2023-01-19T09:55:07;97438.13;;;0.56;100.00
12879;BME280;20617;49.476;10.986;2023-01-19T09:57:21;97438.03;;;0.60;100.00
12879;BME280;20617;49.476;10.986;2023-01-19T09:59:28;97435.34;;;0.70;100.00
12879;BME280;20617;49.476;10.986;2023-01-19T10:01:42;97431.81;;;0.75;100.00
12879;BME280;20617;49.476;10.986;2023-01-19T10:03:51;97423.91;;;0.89;100.00
12879;BME280;20617;49.476;10.986;2023-01-19T10:06:00;97421.97;;;1.03;100.00
12879;BME280;20617;49.476;10.986;2023-01-19T10:08:11;97419.34;;;1.06;100.00
12879;BME280;20617;49.476;10.986;2023-01-19T10:10:21;97419.19;;;1.16;100.00
12879;BME280;20617;49.476;10.986;2023-01-19T10:12:31;97420.59;;;1.32;100.00
12879;BME280;20617;49.476;10.986;2023-01-19T10:14:39;97414.41;;;1.44;100.00
12879;BME280;20617;49.476;10.986;2023-01-19T10:16:48;97423.50;;;1.58;100.00
12879;BME280;20617;49.476;10.986;2023-01-19T10:18:56;97422.34;;;1.73;100.00
12879;BME280;20617;49.476;10.986;2023-01-19T10:21:05;97421.41;;;1.77;100.00
12879;BME280;20617;49.476;10.986;2023-01-19T10:23:17;97417.13;;;1.78;100.00
12879;BME280;20617;49.476;10.986;2023-01-19T10:25:25;97416.81;;;1.92;100.00
12879;BME280;20617;49.476;10.986;2023-01-19T10:27:30;97413.47;;;1.90;100.00
12879;BME280;20617;49.476;10.986;2023-01-19T10:29:36;97409.19;;;1.89;100.00
12879;BME280;20617;49.476;10.986;2023-01-19T10:31:41;97413.28;;;1.97;100.00
12879;BME280;20617;49.476;10.986;2023-01-19T10:33:48;97407.94;;;2.08;100.00
12879;BME280;20617;49.476;10.986;2023-01-19T10:35:53;97408.63;;;2.15;100.00
12879;BME280;20617;49.476;10.986;2023-01-19T10:37:58;97404.38;;;2.14;100.00
12879;BME280;20617;49.476;10.986;2023-01-19T10:40:12;97414.44;;;2.24;100.00
12879;BME280;20617;49.476;10.986;2023-01-19T10:42:25;97411.72;;;2.29;100.00
12879;BME280;20617;49.476;10.986;2023-01-19T10:44:33;97415.81;;;2.38;100.00
12879;BME280;20617;49.476;10.986;2023-01-19T10:46:41;97419.28;;;2.37;100.00
12879;BME280;20617;49.476;10.986;2023-01-19T10:48:47;97412.50;;;2.33;100.00
12879;BME280;20617;49.476;10.986;2023-01-19T10:50:59;97408.38;;;2.27;100.00
12879;BME280;20617;49.476;10.986;2023-01-19T10:53:04;97410.34;;;2.16;100.00
12879;BME280;20617;49.476;10.986;2023-01-19T10:55:11;97411.66;;;2.32;100.00
12879;BME280;20617;49.476;10.986;2023-01-19T10:57:30;97410.06;;;2.26;100.00
12879;BME280;20617;49.476;10.986;2023-01-19T10:59:38;97409.09;;;2.32;100.00